createdAt,value
2019-04-03T00:02:04.352Z,10.40
2019-04-03T00:04:08.499Z,8.73
2019-04-03T00:06:12.331Z,10.73
2019-04-03T00:08:16.047Z,10.23
2019-04-03T00:10:19.753Z,9.17
2019-04-03T00:12:23.422Z,10.53
2019-04-03T00:14:27.163Z,10.07
2019-04-03T00:16:30.857Z,9.77
2019-04-03T00:18:34.738Z,8.97
2019-04-03T00:20:38.583Z,8.43
2019-04-03T00:22:42.290Z,11.30
2019-04-03T00:24:46.042Z,7.20
2019-04-03T00:26:51.981Z,8.33
2019-04-03T00:28:55.119Z,8.50
2019-04-03T00:30:58.836Z,10.60
2019-04-03T00:33:02.619Z,11.67
2019-04-03T00:35:07.782Z,7.33
2019-04-03T00:37:11.432Z,8.50
2019-04-03T00:39:15.133Z,7.60
2019-04-03T00:41:18.918Z,11.90
2019-04-03T00:43:24.351Z,7.47
2019-04-03T00:45:28.110Z,10.20
2019-04-03T00:47:31.772Z,8.23
2019-04-03T00:49:35.451Z,8.23
2019-04-03T00:51:39.117Z,12.10
2019-04-03T00:53:42.836Z,9.73
2019-04-03T00:55:46.584Z,9.30
2019-04-03T00:57:50.318Z,9.37
2019-04-03T00:59:56.499Z,8.33
2019-04-03T01:02:00.597Z,9.67
2019-04-03T01:04:04.305Z,9.97
2019-04-03T01:06:08.614Z,8.63
2019-04-03T01:08:12.252Z,8.13
2019-04-03T01:10:16.043Z,11.87
2019-04-03T01:12:19.800Z,7.50
2019-04-03T01:14:23.459Z,7.50
2019-04-03T01:16:27.138Z,10.20
2019-04-03T01:18:30.794Z,8.97
2019-04-03T01:20:36.155Z,7.70
2019-04-03T01:22:39.967Z,9.43
2019-04-03T01:24:43.706Z,13.23
2019-04-03T01:26:47.398Z,8.20
2019-04-03T01:28:51.110Z,7.87
2019-04-03T01:30:54.807Z,11.63
2019-04-03T01:32:58.470Z,8.13
2019-04-03T01:35:02.130Z,8.40
2019-04-03T01:37:05.811Z,8.83
2019-04-03T01:39:09.573Z,9.57
2019-04-03T01:41:13.265Z,10.07
2019-04-03T01:43:16.927Z,15.00
2019-04-03T01:45:20.656Z,7.97
2019-04-03T01:47:27.378Z,11.30
2019-04-03T01:49:30.711Z,11.70
2019-04-03T01:51:34.462Z,11.33
2019-04-03T01:53:38.140Z,9.73
2019-04-03T01:55:41.991Z,11.83
2019-04-03T01:57:46.789Z,12.90
2019-04-03T01:59:50.517Z,11.87
2019-04-03T02:01:54.292Z,13.27
2019-04-03T02:03:57.960Z,15.20
2019-04-03T02:06:01.663Z,18.90
2019-04-03T02:08:05.343Z,9.97
2019-04-03T02:10:20.380Z,11.50
2019-04-03T02:12:24.113Z,10.87
2019-04-03T02:14:27.794Z,9.47
2019-04-03T02:16:31.461Z,11.03
2019-04-03T02:18:35.153Z,13.87
2019-04-03T02:20:38.810Z,13.77
2019-04-03T02:22:42.490Z,11.33
2019-04-03T02:24:46.246Z,12.63
2019-04-03T02:26:50.011Z,10.47
2019-04-03T02:28:53.695Z,8.50
2019-04-03T02:30:57.382Z,8.53
2019-04-03T02:33:01.153Z,10.43
2019-04-03T02:35:08.192Z,10.57
2019-04-03T02:37:12.190Z,10.37
2019-04-03T02:39:16.118Z,11.20
2019-04-03T02:41:19.855Z,10.50
2019-04-03T02:43:23.627Z,8.43
2019-04-03T02:45:27.291Z,8.73
2019-04-03T02:47:33.614Z,9.90
2019-04-03T02:49:36.383Z,8.90
2019-04-03T02:51:41.459Z,9.47
2019-04-03T02:53:45.470Z,8.77
2019-04-03T02:55:49.230Z,8.43
2019-04-03T02:57:52.914Z,10.53
2019-04-03T02:59:58.757Z,9.63
2019-04-03T03:02:03.029Z,10.47
2019-04-03T03:04:06.722Z,8.50
2019-04-03T03:06:10.395Z,8.37
2019-04-03T03:08:14.167Z,8.63
2019-04-03T03:10:19.327Z,8.70
2019-04-03T03:12:25.028Z,7.10
2019-04-03T03:14:30.401Z,10.53
2019-04-03T03:16:37.009Z,9.87
2019-04-03T03:18:41.162Z,6.20
2019-04-03T03:20:45.069Z,9.30
2019-04-03T03:22:50.545Z,9.33
2019-04-03T03:24:55.015Z,8.57
2019-04-03T03:26:59.468Z,8.77
2019-04-03T03:29:16.991Z,9.57
2019-04-03T03:31:11.777Z,9.43
2019-04-03T03:33:33.766Z,7.87
2019-04-03T03:35:29.039Z,11.43
2019-04-03T03:37:27.808Z,8.90
2019-04-03T03:39:32.881Z,9.53
2019-04-03T03:41:37.141Z,10.27
2019-04-03T03:43:41.325Z,9.50
2019-04-03T03:45:45.247Z,10.70
2019-04-03T03:47:50.037Z,9.57
2019-04-03T03:49:54.242Z,9.00
2019-04-03T03:52:02.693Z,12.70
2019-04-03T03:54:05.306Z,9.73
2019-04-03T03:56:09.542Z,9.87
2019-04-03T03:58:14.127Z,10.43
2019-04-03T04:00:17.943Z,8.53
2019-04-03T04:02:21.656Z,8.93
2019-04-03T04:04:25.356Z,10.07
2019-04-03T04:06:30.245Z,9.77
2019-04-03T04:08:34.717Z,6.80
2019-04-03T04:10:39.283Z,8.30
2019-04-03T04:12:45.034Z,5.73
2019-04-03T04:14:48.982Z,5.43
2019-04-03T04:16:52.849Z,6.03
2019-04-03T04:18:58.103Z,7.23
2019-04-03T04:21:02.842Z,6.33
2019-04-03T04:23:06.532Z,7.60
2019-04-03T04:25:10.196Z,6.97
2019-04-03T04:27:13.860Z,8.13
2019-04-03T04:29:17.943Z,9.10
2019-04-03T04:31:21.758Z,6.73
2019-04-03T04:33:25.474Z,5.93
2019-04-03T04:35:29.138Z,6.43
2019-04-03T04:37:32.810Z,5.73
2019-04-03T04:39:36.482Z,8.10
2019-04-03T04:41:40.138Z,9.73
2019-04-03T04:43:43.823Z,5.27
2019-04-03T04:45:47.590Z,6.77
2019-04-03T04:47:51.254Z,9.90
2019-04-03T04:49:54.958Z,7.20
2019-04-03T04:51:59.245Z,6.73
2019-04-03T04:54:03.097Z,5.63
2019-04-03T04:56:07.363Z,6.37
2019-04-03T04:58:11.651Z,8.17
2019-04-03T05:00:16.274Z,6.70
2019-04-03T05:02:20.500Z,7.23
2019-04-03T05:04:25.324Z,5.30
2019-04-03T05:06:29.931Z,5.87
2019-04-03T05:08:33.734Z,5.70
2019-04-03T05:10:37.403Z,5.27
2019-04-03T05:12:44.502Z,6.33
2019-04-03T05:14:46.829Z,6.67
2019-04-03T05:16:51.961Z,7.70
2019-04-03T05:19:08.386Z,6.57
2019-04-03T05:21:01.386Z,7.77
2019-04-03T05:23:05.103Z,9.00
2019-04-03T05:25:08.838Z,7.17
2019-04-03T05:27:12.509Z,7.07
2019-04-03T05:29:16.594Z,6.30
2019-04-03T05:31:20.281Z,4.97
2019-04-03T05:33:24.133Z,6.07
2019-04-03T05:35:27.957Z,7.30
2019-04-03T05:37:32.616Z,8.40
2019-04-03T05:39:36.296Z,6.30
2019-04-03T05:41:40.021Z,5.77
2019-04-03T05:43:43.762Z,10.33
2019-04-03T05:45:47.574Z,10.37
2019-04-03T05:47:51.273Z,6.10
2019-04-03T05:49:56.097Z,12.10
2019-04-03T05:52:00.291Z,14.17
2019-04-03T05:54:03.955Z,12.57
2019-04-03T05:56:07.694Z,9.60
2019-04-03T05:58:11.389Z,10.80
2019-04-03T06:00:15.396Z,8.67
2019-04-03T06:02:20.977Z,14.80
2019-04-03T06:04:25.098Z,9.77
2019-04-03T06:06:31.626Z,13.33
2019-04-03T06:08:35.358Z,8.60
2019-04-03T06:10:39.215Z,7.60
2019-04-03T06:12:45.223Z,12.13
2019-04-03T06:14:50.508Z,13.60
2019-04-03T06:16:56.011Z,13.30
2019-04-03T06:18:59.723Z,15.20
2019-04-03T06:21:03.486Z,14.90
2019-04-03T06:23:07.796Z,16.80
2019-04-03T06:25:13.665Z,14.07
2019-04-03T06:27:19.365Z,9.10
2019-04-03T06:29:22.580Z,13.67
2019-04-03T06:31:27.094Z,14.20
2019-04-03T06:33:32.028Z,10.47
2019-04-03T06:35:36.809Z,14.00
2019-04-03T06:37:40.656Z,18.47
2019-04-03T06:39:44.550Z,10.57
2019-04-03T06:41:48.393Z,10.37
2019-04-03T06:43:54.085Z,9.03
2019-04-03T06:45:58.273Z,10.07
2019-04-03T06:48:04.256Z,9.57
2019-04-03T06:50:08.447Z,11.13
2019-04-03T06:52:12.246Z,8.67
2019-04-03T06:54:15.980Z,8.83
2019-04-03T06:56:19.902Z,8.33
2019-04-03T06:58:27.337Z,8.77
2019-04-03T07:00:28.950Z,10.70
2019-04-03T07:02:32.687Z,11.77
2019-04-03T07:04:38.358Z,7.93
2019-04-03T07:06:44.302Z,6.73
2019-04-03T07:08:47.296Z,9.40
2019-04-03T07:10:54.942Z,13.37
2019-04-03T07:12:56.438Z,10.03
2019-04-03T07:15:00.104Z,10.80
2019-04-03T07:17:05.786Z,7.33
2019-04-03T07:19:09.209Z,11.83
2019-04-03T07:21:12.858Z,7.50
2019-04-03T07:23:16.546Z,10.60
2019-04-03T07:25:20.294Z,7.43
2019-04-03T07:27:23.969Z,7.87
2019-04-03T07:29:27.635Z,6.43
2019-04-03T07:31:31.285Z,9.43
2019-04-03T07:33:35.013Z,7.40
2019-04-03T07:35:40.420Z,6.27
2019-04-03T07:37:44.437Z,13.43
2019-04-03T07:39:50.200Z,6.63
2019-04-03T07:41:54.768Z,7.83
2019-04-03T07:43:59.349Z,9.17
2019-04-03T07:46:03.363Z,7.90
2019-04-03T07:48:07.808Z,7.40
2019-04-03T07:50:11.766Z,6.47
2019-04-03T07:52:16.808Z,7.73
2019-04-03T07:54:21.961Z,6.40
2019-04-03T07:56:26.626Z,7.87
2019-04-03T07:58:32.076Z,8.07
2019-04-03T08:00:38.365Z,6.23
2019-04-03T08:02:47.211Z,6.07
2019-04-03T08:04:47.115Z,6.50
2019-04-03T08:06:50.779Z,5.10
2019-04-03T08:09:06.502Z,6.70
2019-04-03T08:11:01.939Z,5.77
2019-04-03T08:13:06.639Z,7.00
2019-04-03T08:15:13.501Z,7.30
2019-04-03T08:17:19.342Z,5.20
2019-04-03T08:19:23.207Z,6.53
2019-04-03T08:21:28.020Z,8.30
2019-04-03T08:23:32.702Z,7.83
2019-04-03T08:25:36.961Z,8.00
2019-04-03T08:27:40.755Z,5.93
2019-04-03T08:29:44.465Z,7.90
2019-04-03T08:31:48.695Z,7.50
2019-04-03T08:33:52.826Z,11.80
2019-04-03T08:35:56.713Z,8.33
2019-04-03T08:38:00.389Z,13.77
2019-04-03T08:40:05.185Z,9.37
2019-04-03T08:42:08.844Z,15.63
2019-04-03T08:44:12.619Z,8.30
2019-04-03T08:46:16.305Z,14.37
2019-04-03T08:48:20.116Z,13.63
2019-04-03T08:50:23.821Z,11.83
2019-04-03T08:52:27.514Z,8.13
2019-04-03T08:54:31.164Z,9.80
2019-04-03T08:56:35.183Z,8.00
2019-04-03T08:58:39.139Z,9.23
2019-04-03T09:00:43.084Z,9.47
2019-04-03T09:02:46.800Z,9.00
2019-04-03T09:04:50.754Z,7.90
2019-04-03T09:06:54.703Z,10.47
2019-04-03T09:08:58.726Z,8.53
2019-04-03T09:11:05.079Z,8.07
2019-04-03T09:13:16.808Z,9.00
2019-04-03T09:15:14.134Z,8.27
2019-04-03T09:17:17.842Z,8.20
2019-04-03T09:19:21.532Z,10.63
2019-04-03T09:21:25.227Z,17.37
2019-04-03T09:23:28.895Z,14.77
2019-04-03T09:25:33.015Z,7.20
2019-04-03T09:27:37.982Z,8.03
2019-04-03T09:29:44.578Z,10.93
2019-04-03T09:31:51.427Z,8.50
2019-04-03T09:33:57.010Z,10.67
2019-04-03T09:36:03.366Z,11.33
2019-04-03T09:38:08.730Z,8.73
2019-04-03T09:40:12.109Z,7.73
2019-04-03T09:42:15.794Z,8.13
2019-04-03T09:44:19.466Z,10.00
2019-04-03T09:46:23.120Z,9.40
2019-04-03T09:48:28.782Z,8.83
2019-04-03T09:50:32.559Z,9.70
2019-04-03T09:52:41.485Z,10.03
2019-04-03T09:54:41.905Z,10.30
2019-04-03T09:56:59.465Z,10.93
2019-04-03T09:58:51.062Z,10.67
2019-04-03T10:00:54.730Z,7.93
2019-04-03T10:02:58.566Z,11.87
2019-04-03T10:05:02.582Z,9.87
2019-04-03T10:07:06.324Z,17.53
2019-04-03T10:09:11.850Z,15.13
2019-04-03T10:11:16.152Z,11.40
2019-04-03T10:13:21.093Z,8.10
2019-04-03T10:15:24.954Z,9.93
2019-04-03T10:17:28.942Z,12.53
2019-04-03T10:19:32.665Z,9.37
2019-04-03T10:21:39.077Z,13.23
2019-04-03T10:23:42.885Z,8.20
2019-04-03T10:25:46.898Z,12.23
2019-04-03T10:27:50.975Z,9.63
2019-04-03T10:29:56.037Z,14.80
2019-04-03T10:32:00.506Z,13.73
2019-04-03T10:34:04.723Z,9.90
2019-04-03T10:36:10.208Z,12.13
2019-04-03T10:38:13.795Z,10.37
2019-04-03T10:40:17.891Z,12.97
2019-04-03T10:42:21.546Z,9.30
2019-04-03T10:44:25.271Z,9.43
2019-04-03T10:46:29.042Z,10.57
2019-04-03T10:48:32.834Z,11.63
2019-04-03T10:50:38.046Z,13.47
2019-04-03T10:52:44.057Z,11.63
2019-04-03T10:54:47.724Z,10.37
2019-04-03T10:56:51.424Z,10.03
2019-04-03T10:58:55.211Z,8.43
2019-04-03T11:00:59.793Z,10.57
2019-04-03T11:03:05.264Z,10.73
2019-04-03T11:05:09.523Z,9.43
2019-04-03T11:07:13.590Z,11.80
2019-04-03T11:09:17.303Z,9.50
2019-04-03T11:11:21.275Z,9.80
2019-04-03T11:13:24.986Z,12.83
2019-04-03T11:15:28.702Z,10.83
2019-04-03T11:17:32.388Z,12.10
2019-04-03T11:19:37.460Z,10.97
2019-04-03T11:21:43.242Z,11.20
2019-04-03T11:23:49.365Z,11.90
2019-04-03T11:25:52.564Z,10.97
2019-04-03T11:27:56.350Z,10.63
2019-04-03T11:30:00.337Z,11.43
2019-04-03T11:32:04.376Z,11.07
2019-04-03T11:34:08.154Z,14.03
2019-04-03T11:36:12.246Z,11.27
2019-04-03T11:38:26.390Z,11.27
2019-04-03T11:40:24.539Z,13.83
2019-04-03T11:42:29.425Z,10.03
2019-04-03T11:44:32.631Z,10.40
2019-04-03T11:46:36.583Z,14.10
2019-04-03T11:48:42.707Z,10.63
2019-04-03T11:50:45.641Z,11.13
2019-04-03T11:52:51.405Z,10.87
2019-04-03T11:54:54.843Z,14.60
2019-04-03T11:56:58.604Z,10.80
2019-04-03T11:59:02.254Z,9.80
2019-04-03T12:01:07.677Z,13.50
2019-04-03T12:03:12.116Z,12.53
2019-04-03T12:05:20.170Z,15.07
2019-04-03T12:07:23.164Z,10.27
2019-04-03T12:09:29.359Z,13.00
2019-04-03T12:11:33.805Z,13.43
2019-04-03T12:13:37.496Z,11.60
2019-04-03T12:15:41.210Z,11.27
2019-04-03T12:17:44.924Z,12.80
2019-04-03T12:19:48.799Z,15.30
2019-04-03T12:21:52.565Z,10.60
2019-04-03T12:23:58.146Z,13.13
2019-04-03T12:26:01.778Z,15.00
2019-04-03T12:28:06.829Z,13.43
2019-04-03T12:30:11.225Z,12.17
2019-04-03T12:32:15.072Z,15.30
2019-04-03T12:34:18.739Z,16.10
2019-04-03T12:36:22.781Z,11.57
2019-04-03T12:38:26.517Z,12.20
2019-04-03T12:40:32.371Z,12.47
2019-04-03T12:42:35.881Z,10.63
2019-04-03T12:44:39.826Z,10.47
2019-04-03T12:46:43.630Z,15.63
2019-04-03T12:48:48.690Z,10.67
2019-04-03T12:50:53.320Z,13.37
2019-04-03T12:52:57.331Z,11.80
2019-04-03T12:55:00.997Z,12.17
2019-04-03T12:57:04.693Z,11.87
2019-04-03T12:59:09.468Z,11.17
2019-04-03T13:01:15.308Z,11.83
2019-04-03T13:03:19.432Z,13.70
2019-04-03T13:05:23.283Z,13.53
2019-04-03T13:07:27.336Z,11.67
2019-04-03T13:09:31.126Z,14.00
2019-04-03T13:11:35.092Z,12.87
2019-04-03T13:13:39.254Z,11.27
2019-04-03T13:15:43.040Z,13.17
2019-04-03T13:17:46.798Z,11.63
2019-04-03T13:19:50.882Z,12.57
2019-04-03T13:21:54.863Z,10.50
2019-04-03T13:23:58.774Z,11.47
2019-04-03T13:26:02.439Z,10.67
2019-04-03T13:28:06.238Z,11.53
2019-04-03T13:30:12.906Z,11.50
2019-04-03T13:32:17.824Z,10.20
2019-04-03T13:34:21.937Z,11.10
2019-04-03T13:36:25.674Z,14.67
2019-04-03T13:38:29.974Z,13.30
2019-04-03T13:40:36.427Z,12.50
2019-04-03T13:42:39.777Z,11.63
2019-04-03T13:44:43.951Z,11.67
2019-04-03T13:46:47.733Z,12.53
2019-04-03T13:48:51.424Z,12.10
2019-04-03T13:50:55.687Z,13.87
2019-04-03T13:52:59.835Z,13.17
2019-04-03T13:55:04.446Z,11.27
2019-04-03T13:57:08.179Z,11.80
2019-04-03T13:59:11.893Z,9.83
2019-04-03T14:01:16.205Z,11.47
2019-04-03T14:03:21.135Z,12.83
2019-04-03T14:05:27.075Z,15.20
2019-04-03T14:07:31.606Z,13.47
2019-04-03T14:09:36.006Z,32.03
2019-04-03T14:11:39.956Z,18.40
2019-04-03T14:13:44.425Z,10.43
2019-04-03T14:15:50.862Z,11.87
2019-04-03T14:17:58.447Z,13.33
2019-04-03T14:19:59.997Z,11.83
2019-04-03T14:22:04.000Z,10.67
2019-04-03T14:24:08.998Z,12.73
2019-04-03T14:26:14.669Z,14.00
2019-04-03T14:28:18.622Z,11.43
2019-04-03T14:30:22.327Z,12.37
2019-04-03T14:32:26.476Z,9.17
2019-04-03T14:34:30.689Z,11.80
2019-04-03T14:36:34.711Z,16.17
2019-04-03T14:38:38.680Z,16.90
2019-04-03T14:40:43.490Z,10.47
2019-04-03T14:42:47.801Z,10.57
2019-04-03T14:44:51.475Z,11.17
2019-04-03T14:46:55.154Z,9.93
2019-04-03T14:49:01.266Z,12.87
2019-04-03T14:51:06.430Z,12.40
2019-04-03T14:53:10.602Z,14.83
2019-04-03T14:55:20.303Z,11.27
2019-04-03T14:57:22.647Z,12.43
2019-04-03T14:59:25.172Z,10.13
2019-04-03T15:01:28.845Z,17.20
2019-04-03T15:03:34.248Z,11.77
2019-04-03T15:05:39.657Z,9.70
2019-04-03T15:07:43.397Z,12.07
2019-04-03T15:09:47.438Z,11.53
2019-04-03T15:11:52.880Z,11.17
2019-04-03T15:13:56.571Z,10.63
2019-04-03T15:16:00.628Z,11.60
2019-04-03T15:18:05.437Z,13.30
2019-04-03T15:20:10.952Z,10.00
2019-04-03T15:22:14.742Z,12.23
2019-04-03T15:24:18.638Z,12.10
2019-04-03T15:26:23.094Z,13.47
2019-04-03T15:28:29.700Z,10.47
2019-04-03T15:30:32.900Z,9.63
2019-04-03T15:32:36.609Z,10.60
2019-04-03T15:34:41.423Z,9.93
2019-04-03T15:36:45.150Z,18.77
2019-04-03T15:38:48.819Z,18.40
2019-04-03T15:40:52.491Z,11.20
2019-04-03T15:42:56.758Z,11.23
2019-04-03T15:45:00.955Z,11.17
2019-04-03T15:47:04.951Z,10.90
2019-04-03T15:49:08.898Z,11.27
2019-04-03T15:51:13.149Z,15.43
2019-04-03T15:53:17.055Z,11.73
2019-04-03T15:55:20.884Z,10.23
2019-04-03T15:57:24.709Z,13.87
2019-04-03T15:59:29.723Z,15.23
2019-04-03T16:01:33.791Z,11.53
2019-04-03T16:03:39.223Z,10.87
2019-04-03T16:05:42.905Z,10.00
2019-04-03T16:07:47.339Z,12.87
2019-04-03T16:09:51.552Z,12.13
2019-04-03T16:11:56.203Z,11.27
2019-04-03T16:14:01.422Z,13.03
2019-04-03T16:16:05.174Z,15.10
2019-04-03T16:18:10.499Z,13.67
2019-04-03T16:20:17.868Z,12.43
2019-04-03T16:22:29.726Z,13.57
2019-04-03T16:24:38.204Z,11.37
2019-04-03T16:26:42.752Z,11.03
2019-04-03T16:28:47.399Z,12.03
2019-04-03T16:30:57.252Z,15.50
2019-04-03T16:33:04.306Z,14.97
2019-04-03T16:35:12.710Z,11.10
2019-04-03T16:37:23.624Z,12.93
2019-04-03T16:39:31.718Z,12.73
2019-04-03T16:41:44.095Z,18.60
2019-04-03T16:43:47.854Z,5.67
2019-04-03T16:45:52.882Z,15.57
2019-04-03T16:48:00.400Z,10.70
2019-04-03T16:50:09.763Z,10.40
2019-04-03T16:52:13.802Z,9.10
2019-04-03T16:54:18.005Z,9.53
2019-04-03T16:56:21.889Z,7.53
2019-04-03T16:58:26.499Z,8.10
2019-04-03T17:00:31.311Z,6.20
2019-04-03T17:02:37.034Z,7.70
2019-04-03T17:04:40.848Z,5.43
2019-04-03T17:06:45.067Z,5.00
2019-04-03T17:08:49.962Z,5.10
2019-04-03T17:10:54.058Z,5.97
2019-04-03T17:12:58.285Z,6.20
2019-04-03T17:15:01.992Z,6.63
2019-04-03T17:17:06.905Z,7.07
2019-04-03T17:19:11.415Z,14.97
2019-04-03T17:21:15.335Z,8.13
2019-04-03T17:23:19.067Z,8.27
2019-04-03T17:25:23.259Z,7.70
2019-04-03T17:27:29.576Z,7.17
2019-04-03T17:29:32.700Z,7.27
2019-04-03T17:31:36.469Z,7.10
2019-04-03T17:33:40.403Z,5.70
2019-04-03T17:35:46.077Z,5.97
2019-04-03T17:37:49.609Z,5.03
2019-04-03T17:39:53.287Z,4.10
2019-04-03T17:41:57.150Z,4.53
2019-04-03T17:44:00.803Z,3.30
2019-04-03T17:46:04.468Z,3.50
2019-04-03T17:48:09.662Z,3.50
2019-04-03T17:50:13.535Z,2.70
2019-04-03T17:52:17.218Z,2.10
2019-04-03T17:54:20.981Z,2.23
2019-04-03T17:56:24.623Z,2.00
2019-04-03T17:58:28.341Z,1.60
2019-04-03T18:00:31.993Z,1.70
2019-04-03T18:02:36.110Z,2.50
2019-04-03T18:04:39.875Z,2.43
2019-04-03T18:06:46.412Z,2.50
2019-04-03T18:08:49.035Z,1.93
2019-04-03T18:10:53.360Z,2.30
2019-04-03T18:12:57.051Z,1.87
2019-04-03T18:15:00.744Z,1.83
2019-04-03T18:17:06.317Z,2.13
2019-04-03T18:19:10.027Z,5.77
2019-04-03T18:21:15.109Z,9.50
2019-04-03T18:23:19.874Z,3.07
2019-04-03T18:25:24.821Z,10.23
2019-04-03T18:27:28.480Z,4.23
2019-04-03T18:29:32.254Z,6.20
2019-04-03T18:31:35.919Z,4.00
2019-04-03T18:33:39.758Z,4.20
2019-04-03T18:35:43.515Z,4.43
2019-04-03T18:37:47.175Z,5.40
2019-04-03T18:39:51.574Z,4.40
2019-04-03T18:41:55.394Z,4.27
2019-04-03T18:43:59.071Z,3.77
2019-04-03T18:46:03.125Z,3.40
2019-04-03T18:48:06.770Z,2.80
2019-04-03T18:50:10.787Z,2.80
2019-04-03T18:52:14.480Z,2.80
2019-04-03T18:54:18.174Z,3.50
2019-04-03T18:56:21.936Z,3.10
2019-04-03T18:58:25.605Z,2.73
2019-04-03T19:00:30.734Z,2.53
2019-04-03T19:02:35.241Z,2.10
2019-04-03T19:04:38.998Z,2.50
2019-04-03T19:06:44.507Z,2.80
2019-04-03T19:08:49.770Z,2.27
2019-04-03T19:11:01.970Z,3.37
2019-04-03T19:12:58.878Z,2.60
2019-04-03T19:15:03.216Z,2.60
2019-04-03T19:17:07.079Z,2.43
2019-04-03T19:19:10.735Z,2.20
2019-04-03T19:21:24.637Z,2.50
2019-04-03T19:23:19.948Z,2.37
2019-04-03T19:25:23.621Z,2.37
2019-04-03T19:27:27.333Z,2.80
2019-04-03T19:29:31.066Z,2.97
2019-04-03T19:31:39.847Z,2.33
2019-04-03T19:33:45.390Z,2.57
2019-04-03T19:35:48.572Z,2.10
2019-04-03T19:37:52.324Z,2.63
2019-04-03T19:39:56.062Z,2.13
2019-04-03T19:41:59.787Z,2.23
2019-04-03T19:44:03.476Z,1.90
2019-04-03T19:46:07.296Z,1.83
2019-04-03T19:48:16.898Z,2.20
2019-04-03T19:50:20.564Z,2.30
2019-04-03T19:52:24.270Z,2.20
2019-04-03T19:54:27.939Z,1.77
2019-04-03T19:56:31.682Z,1.60
2019-04-03T19:58:35.362Z,2.10
2019-04-03T20:00:39.054Z,1.90
2019-04-03T20:02:43.583Z,1.60
2019-04-03T20:04:50.023Z,1.57
2019-04-03T20:06:55.308Z,2.27
2019-04-03T20:09:00.925Z,1.60
2019-04-03T20:11:05.100Z,1.73
2019-04-03T20:13:09.423Z,9.10
2019-04-03T20:15:13.101Z,10.63
2019-04-03T20:17:17.360Z,2.53
2019-04-03T20:19:20.999Z,12.57
2019-04-03T20:21:26.184Z,4.10
2019-04-03T20:23:30.256Z,2.63
2019-04-03T20:25:34.122Z,2.43
2019-04-03T20:27:37.899Z,2.30
2019-04-03T20:29:41.818Z,13.47
2019-04-03T20:31:45.736Z,7.90
2019-04-03T20:33:49.493Z,6.57
2019-04-03T20:35:53.146Z,2.60
2019-04-03T20:37:57.577Z,2.50
2019-04-03T20:40:01.491Z,2.70
2019-04-03T20:42:07.218Z,3.90
2019-04-03T20:44:10.586Z,2.63
2019-04-03T20:46:14.355Z,2.70
2019-04-03T20:48:18.047Z,2.37
2019-04-03T20:50:22.079Z,2.60
2019-04-03T20:52:25.752Z,2.73
2019-04-03T20:54:29.729Z,3.37
2019-04-03T20:56:34.212Z,2.53
2019-04-03T20:58:40.189Z,2.50
2019-04-03T21:00:43.549Z,2.53
2019-04-03T21:02:47.249Z,2.53
2019-04-03T21:04:50.933Z,2.77
2019-04-03T21:06:54.578Z,2.80
2019-04-03T21:08:59.476Z,2.60
2019-04-03T21:11:03.225Z,3.13
2019-04-03T21:13:08.730Z,2.50
2019-04-03T21:15:14.196Z,2.87
2019-04-03T21:17:18.903Z,2.37
2019-04-03T21:19:23.252Z,2.33
2019-04-03T21:21:27.160Z,2.87
2019-04-03T21:23:33.265Z,2.67
2019-04-03T21:25:36.659Z,4.33
2019-04-03T21:27:40.711Z,6.43
2019-04-03T21:29:44.430Z,4.47
2019-04-03T21:31:48.102Z,7.27
2019-04-03T21:33:51.774Z,7.63
2019-04-03T21:35:57.170Z,3.30
2019-04-03T21:38:00.972Z,3.17
2019-04-03T21:40:05.332Z,2.17
2019-04-03T21:42:09.128Z,2.60
2019-04-03T21:44:12.789Z,3.20
2019-04-03T21:46:16.459Z,2.60
2019-04-03T21:48:20.122Z,4.47
2019-04-03T21:50:23.846Z,2.70
2019-04-03T21:52:27.520Z,2.63
2019-04-03T21:54:31.279Z,2.67
2019-04-03T21:56:35.039Z,3.80
2019-04-03T21:58:39.731Z,2.87
2019-04-03T22:00:59.459Z,3.40
2019-04-03T22:03:03.130Z,3.73
2019-04-03T22:05:07.724Z,3.07
2019-04-03T22:07:11.408Z,2.93
2019-04-03T22:09:15.088Z,2.23
2019-04-03T22:11:18.797Z,2.53
2019-04-03T22:13:22.489Z,3.00
2019-04-03T22:15:26.345Z,2.83
2019-04-03T22:17:30.046Z,2.73
2019-04-03T22:19:33.699Z,2.93
2019-04-03T22:21:37.390Z,3.40
2019-04-03T22:23:41.047Z,3.33
2019-04-03T22:25:44.720Z,3.40
2019-04-03T22:27:48.425Z,3.50
2019-04-03T22:29:52.085Z,3.90
2019-04-03T22:31:55.773Z,4.50
2019-04-03T22:33:59.490Z,4.70
2019-04-03T22:36:03.852Z,4.50
2019-04-03T22:38:08.844Z,4.90
2019-04-03T22:40:12.502Z,5.80
2019-04-03T22:42:16.274Z,5.33
2019-04-03T22:44:19.947Z,5.50
2019-04-03T22:46:23.613Z,6.17
2019-04-03T22:48:27.734Z,7.07
2019-04-03T22:50:33.456Z,6.70
2019-04-03T22:52:39.945Z,6.77
2019-04-03T22:54:44.405Z,7.23
2019-04-03T22:56:48.349Z,8.30
2019-04-03T22:58:52.953Z,8.43
2019-04-03T23:00:59.203Z,7.90
2019-04-03T23:03:03.497Z,9.77
2019-04-03T23:05:07.516Z,9.90
2019-04-03T23:07:11.206Z,9.83
2019-04-03T23:09:15.002Z,9.53
2019-04-03T23:11:18.759Z,10.37
2019-04-03T23:13:22.454Z,20.63
2019-04-03T23:15:26.159Z,10.60
2019-04-03T23:17:29.819Z,10.23
2019-04-03T23:19:33.520Z,11.57
2019-04-03T23:21:37.177Z,11.70
2019-04-03T23:23:43.006Z,12.43
2019-04-03T23:25:46.687Z,11.33
2019-04-03T23:27:50.354Z,12.23
2019-04-03T23:29:54.155Z,11.80
2019-04-03T23:31:58.116Z,12.07
2019-04-03T23:34:01.926Z,12.53
2019-04-03T23:36:05.586Z,12.80
2019-04-03T23:38:09.284Z,12.00
2019-04-03T23:40:12.971Z,13.27
2019-04-03T23:42:16.635Z,13.03
2019-04-03T23:44:20.335Z,13.67
2019-04-03T23:46:23.998Z,13.33
2019-04-03T23:48:27.653Z,13.80
2019-04-03T23:50:31.359Z,12.93
2019-04-03T23:52:35.095Z,13.07
2019-04-03T23:54:38.902Z,14.07
2019-04-03T23:56:42.567Z,13.93
2019-04-03T23:58:46.347Z,16.80
